Main page
METAR-TAF:

METAR-TAF

Airports :

RAF Wittering

Wittering, England

latitude: 52-37N, longitude: 000-28W, elevation: 84 m

Current weather observation

The report was made 30 minutes ago, at 00:50 UTC
Wind 8 kt from the North
Temperature 7°C
Humidity 100%
Pressure 994 hPa
Visibility: 4400 m
mist

METAR: EGXT 240050Z AUTO 36008KT 4400 BR OVC230/// 07/07 Q0994

Time: 02:20 (01:20 UTC)

Forecast

The report was made 11 hours and 56 minutes ago, at 13:24 UTC
Forecast valid from 23 at 15 UTC to 23 at 18 UTC
Wind 12 kt from the East/Northeast
Visibility 10 km or more
no clouds below 1500 m and no cumulonimbus

TAF: EGXT 231324Z 2315/2318 07012KT CAVOK

Weather observations and forecasts of more than 4000 airports (METAR and TAF reports).

The available stations are represented by yellow and red dots on the map.

Hover mouse over dot to see the name of the station.

Then click to see weather observations and forecasts.

To change the map : click on the green buttons with a black cross to zoom in, on the green button with a dash to zoom out, or on the green arrows for adjacent maps.


METAR-TAF: